Time;durP1;ratioP1;P1;durP2;ratioP2;P2;SDS_P1;SDS_P2;PMS_P1;PMS_P2;Temp;Humidity;BMP_temperature;BMP_pressure;BME280_temperature;BME280_humidity;BME280_pressure;Samples;Min_cycle;Max_cycle;Signal;HPM_P1;HPM_P2
2023/01/12 00:01:50;;;;;;;8.68;3.90;;;;;;;-8.33;58.54;100608.69;7352854;19;20021;-75
2023/01/12 00:04:15;;;;;;;4.80;2.80;;;;;;;-8.25;58.48;100589.88;7356743;19;20010;-77
2023/01/12 00:06:40;;;;;;;5.97;2.83;;;;;;;-8.16;58.54;100600.38;7365925;19;20006;-73
2023/01/12 00:09:06;;;;;;;2.30;1.15;;;;;;;-7.99;58.32;100584.28;7355146;19;20070;-75
2023/01/12 00:11:31;;;;;;;5.82;2.95;;;;;;;-8.11;58.46;100590.97;7350581;19;20018;-72
2023/01/12 00:13:56;;;;;;;2.03;1.10;;;;;;;-7.97;58.28;100593.81;7348102;19;20109;-73
2023/01/12 00:16:38;;;;;;;5.88;2.65;;;;;;;-8.04;58.37;100588.53;7367023;19;20014;-77
2023/01/12 00:19:16;;;;;;;1.60;0.98;;;;;;;-7.93;58.57;100593.06;7365499;19;20010;-74
2023/01/12 00:21:46;;;;;;;3.72;2.42;;;;;;;-8.15;58.47;100593.50;7349840;19;20010;-74
2023/01/12 00:24:12;;;;;;;6.40;2.90;;;;;;;-8.31;59.38;100583.72;7352010;19;20018;-72
2023/01/12 00:26:36;;;;;;;7.03;2.75;;;;;;;-7.83;58.87;100594.94;7354393;19;20465;-73
2023/01/12 00:29:01;;;;;;;4.32;2.53;;;;;;;-8.14;58.51;100592.66;7352198;19;20846;-74
2023/01/12 00:31:26;;;;;;;10.18;5.07;;;;;;;-8.11;58.35;100587.53;7352376;19;20007;-73
2023/01/12 00:33:50;;;;;;;2.17;1.77;;;;;;;-7.93;58.35;100587.00;7347178;19;20094;-73
2023/01/12 00:36:17;;;;;;;5.38;1.67;;;;;;;-7.94;58.13;100595.59;7351483;19;20011;-77
2023/01/12 00:38:42;;;;;;;6.25;3.72;;;;;;;-8.20;58.83;100571.84;7345609;19;20018;-74
2023/01/12 00:41:09;;;;;;;6.65;3.28;;;;;;;-8.36;59.73;100570.72;7349053;19;20017;-74
2023/01/12 00:46:16;;;;;;;5.97;3.42;;;;;;;-8.24;59.24;100572.66;7351198;19;20011;-74
2023/01/12 00:48:41;;;;;;;4.88;3.30;;;;;;;-8.30;59.61;100577.69;7363000;19;20045;-73
2023/01/12 00:51:06;;;;;;;6.10;3.15;;;;;;;-8.07;59.14;100589.34;7350854;19;20014;-73
2023/01/12 00:53:30;;;;;;;3.10;1.90;;;;;;;-7.97;58.55;100577.44;7342396;19;20029;-78
2023/01/12 00:56:02;;;;;;;5.72;3.42;;;;;;;-8.11;58.56;100561.66;7348347;19;20414;-75
2023/01/12 00:58:27;;;;;;;7.10;2.97;;;;;;;-8.15;58.87;100568.50;7348950;19;20010;-76
2023/01/12 01:00:52;;;;;;;2.53;1.65;;;;;;;-7.95;58.57;100589.56;7349087;19;20014;-74
2023/01/12 01:03:17;;;;;;;6.13;2.28;;;;;;;-8.08;58.53;100578.13;7347029;19;20038;-75
2023/01/12 01:05:41;;;;;;;3.65;1.42;;;;;;;-8.00;58.64;100575.66;7345135;19;20029;-78
2023/01/12 01:08:06;;;;;;;4.07;2.03;;;;;;;-8.11;58.74;100582.34;7346782;19;20494;-79
2023/01/12 01:10:30;;;;;;;3.45;1.83;;;;;;;-8.19;59.07;100568.41;7348125;19;20007;-74
2023/01/12 01:12:55;;;;;;;5.78;2.85;;;;;;;-8.22;59.44;100558.00;7347652;19;20022;-74
2023/01/12 01:15:19;;;;;;;1.95;1.33;;;;;;;-8.26;59.96;100569.16;7345688;19;20013;-72
2023/01/12 01:17:44;;;;;;;10.45;4.00;;;;;;;-8.24;59.65;100557.13;7346816;19;20003;-74
2023/01/12 01:20:09;;;;;;;7.45;3.47;;;;;;;-8.47;60.52;100572.25;7345175;19;20186;-77
2023/01/12 01:22:34;;;;;;;2.50;2.10;;;;;;;-8.13;59.79;100569.41;7346709;19;20032;-75
2023/01/12 01:24:59;;;;;;;3.33;2.17;;;;;;;-8.10;59.44;100568.56;7349507;19;20003;-74
2023/01/12 01:27:23;;;;;;;4.78;1.98;;;;;;;-8.07;59.13;100556.56;7344805;19;20025;-73
2023/01/12 01:29:48;;;;;;;4.93;2.15;;;;;;;-8.11;59.38;100549.59;7348479;19;20014;-75
2023/01/12 01:32:13;;;;;;;2.38;1.38;;;;;;;-8.03;59.51;100564.41;7345244;19;20047;-75
2023/01/12 01:34:38;;;;;;;4.03;2.38;;;;;;;-8.06;59.83;100557.44;7345950;19;20011;-73
2023/01/12 01:37:02;;;;;;;2.92;2.05;;;;;;;-8.21;60.35;100550.28;7344440;19;20003;-74
2023/01/12 01:39:27;;;;;;;1.55;1.13;;;;;;;-8.00;60.07;100543.72;7346911;19;20437;-78
2023/01/12 01:41:52;;;;;;;1.10;0.98;;;;;;;-7.82;59.60;100549.25;7353499;19;20007;-77
2023/01/12 01:44:29;;;;;;;3.03;2.30;;;;;;;-8.04;59.83;100542.84;7352139;19;20021;-76
2023/01/12 01:47:07;;;;;;;4.15;2.53;;;;;;;-8.16;60.18;100547.78;7354732;19;20071;-78
2023/01/12 01:49:42;;;;;;;5.88;2.45;;;;;;;-7.93;60.25;100541.28;7354135;19;20047;-77
2023/01/12 01:52:11;;;;;;;6.63;2.88;;;;;;;-8.24;60.37;100528.69;7352081;19;20015;-76
2023/01/12 01:54:43;;;;;;;8.13;4.05;;;;;;;-8.27;60.50;100539.84;7349987;19;20036;-75
2023/01/12 01:57:11;;;;;;;4.68;3.03;;;;;;;-8.33;60.87;100529.38;7347984;19;20017;-74
2023/01/12 01:59:42;;;;;;;1.63;1.35;;;;;;;-8.12;60.13;100521.97;7345554;19;20015;-73
2023/01/12 02:02:07;;;;;;;4.80;2.65;;;;;;;-8.34;60.97;100517.31;7347224;19;20018;-73
2023/01/12 02:04:31;;;;;;;4.05;2.50;;;;;;;-8.24;61.07;100531.25;7349401;19;20021;-75
2023/01/12 02:06:58;;;;;;;4.72;2.75;;;;;;;-8.33;60.87;100508.69;7357252;19;20033;-73
2023/01/12 02:09:28;;;;;;;3.70;2.03;;;;;;;-8.21;60.89;100508.03;7352235;19;20018;-75
2023/01/12 02:17:51;;;;;;;11.85;3.55;;;;;;;-8.26;61.28;100522.59;7355657;19;20041;-77
2023/01/12 02:20:41;;;;;;;6.38;2.92;;;;;;;-8.10;61.41;100524.59;7353014;19;20014;-74
2023/01/12 02:23:31;;;;;;;3.55;2.08;;;;;;;-8.10;61.02;100509.94;7356788;19;20011;-76
2023/01/12 02:26:07;;;;;;;3.05;2.40;;;;;;;-8.07;61.00;100514.31;7354316;19;20056;-77
2023/01/12 02:28:53;;;;;;;6.47;3.67;;;;;;;-8.18;60.64;100511.53;7351924;19;20018;-76
2023/01/12 02:31:24;;;;;;;1.77;1.48;;;;;;;-8.02;60.68;100520.44;7354099;19;20361;-69
2023/01/12 02:34:08;;;;;;;5.28;3.08;;;;;;;-8.02;60.30;100509.22;7345169;19;20025;-72
2023/01/12 02:36:36;;;;;;;8.73;4.80;;;;;;;-8.22;60.73;100511.44;7345970;19;20017;-77
2023/01/12 02:39:01;;;;;;;6.32;3.85;;;;;;;-8.30;60.97;100503.56;7344961;19;20034;-76
2023/01/12 02:44:29;;;;;;;1.05;1.02;;;;;;;-7.79;60.32;100498.41;7351922;19;20453;-72
2023/01/12 02:46:59;;;;;;;5.30;3.08;;;;;;;-8.10;60.13;100509.94;7351295;19;20040;-75
2023/01/12 02:49:30;;;;;;;10.68;3.55;;;;;;;-8.18;60.41;100508.94;7351176;19;20026;-73
2023/01/12 02:51:59;;;;;;;6.53;3.70;;;;;;;-8.18;60.36;100514.13;7351944;19;20014;-76
2023/01/12 02:54:26;;;;;;;1.23;0.88;;;;;;;-8.03;60.26;100510.94;7348020;19;20031;-79
2023/01/12 02:56:59;;;;;;;9.60;4.03;;;;;;;-8.43;60.81;100506.78;7350732;19;20326;-73
2023/01/12 02:59:31;;;;;;;3.90;3.00;;;;;;;-8.37;61.30;100519.84;7347859;19;20054;-70
2023/01/12 03:02:08;;;;;;;6.70;3.85;;;;;;;-8.08;60.66;100497.03;7350134;19;20010;-77
2023/01/12 03:04:33;;;;;;;6.45;3.47;;;;;;;-8.11;60.88;100494.41;7349470;19;20014;-77
2023/01/12 03:06:58;;;;;;;7.53;3.33;;;;;;;-8.21;60.91;100502.84;7352714;19;20029;-79
2023/01/12 03:09:45;;;;;;;4.97;2.60;;;;;;;-7.96;60.89;100517.06;7351098;19;20037;-74
2023/01/12 03:12:18;;;;;;;4.38;2.88;;;;;;;-7.66;59.73;100511.50;7351288;19;20014;-75
2023/01/12 03:14:47;;;;;;;5.53;2.58;;;;;;;-7.87;59.49;100525.84;7350268;19;20029;-77
2023/01/12 03:17:20;;;;;;;5.85;2.83;;;;;;;-7.96;59.78;100523.13;7350432;19;20066;-82
2023/01/12 03:19:46;;;;;;;3.70;2.08;;;;;;;-7.81;59.46;100515.63;7351807;19;20036;-83
2023/01/12 03:22:14;;;;;;;2.92;1.83;;;;;;;-7.79;58.96;100513.94;7348338;19;20345;-78
2023/01/12 03:24:44;;;;;;;6.97;3.58;;;;;;;-7.94;59.51;100529.19;7348839;19;20014;-79
2023/01/12 03:27:15;;;;;;;4.22;2.72;;;;;;;-7.84;59.29;100528.50;7350575;19;20024;-81
2023/01/12 03:29:45;;;;;;;2.40;1.45;;;;;;;-7.94;59.81;100529.19;7350093;19;20081;-79
2023/01/12 03:32:10;;;;;;;3.40;2.15;;;;;;;-8.00;59.64;100539.44;7349053;19;20014;-78
2023/01/12 03:34:36;;;;;;;3.83;2.47;;;;;;;-8.04;59.65;100522.13;7347868;19;20015;-78
2023/01/12 03:37:23;;;;;;;5.60;2.33;;;;;;;-8.10;59.73;100516.84;7348616;19;20018;-83
2023/01/12 03:40:20;;;;;;;8.23;4.88;;;;;;;-8.10;60.13;100512.53;7350484;19;20101;-82
2023/01/12 03:43:12;;;;;;;6.43;2.35;;;;;;;-7.76;58.67;100511.38;7350301;19;20034;-77
2023/01/12 03:45:47;;;;;;;6.72;2.45;;;;;;;-8.01;59.60;100510.97;7346391;19;20014;-74
2023/01/12 03:48:26;;;;;;;5.93;3.03;;;;;;;-8.28;59.96;100493.25;7348020;19;20010;-74
2023/01/12 03:50:57;;;;;;;9.70;4.20;;;;;;;-8.22;60.28;100476.09;7348404;19;20086;-75
2023/01/12 03:53:23;;;;;;;2.20;1.35;;;;;;;-8.00;60.12;100463.53;7347360;19;20014;-73
2023/01/12 03:55:53;;;;;;;6.03;3.53;;;;;;;-8.06;60.18;100477.25;7346118;19;20011;-70
2023/01/12 03:58:17;;;;;;;4.95;2.38;;;;;;;-8.21;60.59;100480.44;7349156;19;20014;-68
2023/01/12 04:00:43;;;;;;;8.20;3.72;;;;;;;-8.22;60.64;100486.44;7348859;19;20018;-64
2023/01/12 04:03:10;;;;;;;3.25;1.98;;;;;;;-8.12;60.80;100477.13;7345640;19;20018;-71
2023/01/12 04:05:35;;;;;;;3.22;2.55;;;;;;;-8.06;60.47;100460.00;7348960;19;20014;-69
2023/01/12 04:08:00;;;;;;;5.65;3.22;;;;;;;-8.20;61.09;100464.09;7344508;19;20028;-68
2023/01/12 04:10:24;;;;;;;5.00;2.85;;;;;;;-8.14;61.14;100469.38;7347342;19;20580;-69
2023/01/12 04:12:49;;;;;;;5.25;2.65;;;;;;;-8.03;61.08;100468.69;7345130;19;20018;-69
2023/01/12 04:15:16;;;;;;;7.15;3.63;;;;;;;-7.96;60.76;100467.91;7349790;19;20014;-67
2023/01/12 04:17:40;;;;;;;7.10;4.50;;;;;;;-8.07;61.15;100467.75;7348266;19;20117;-68
2023/01/12 04:20:05;;;;;;;6.95;4.25;;;;;;;-7.95;61.31;100486.06;7346707;19;20018;-68
2023/01/12 04:22:41;;;;;;;6.70;3.20;;;;;;;-8.21;61.56;100469.22;7347763;19;20349;-70
2023/01/12 04:25:07;;;;;;;4.38;2.45;;;;;;;-7.81;61.24;100463.88;7346490;19;20011;-67
2023/01/12 04:27:32;;;;;;;6.38;3.88;;;;;;;-8.29;62.03;100481.16;7347156;19;20031;-69
2023/01/12 04:29:56;;;;;;;6.63;3.40;;;;;;;-7.99;61.00;100473.91;7347563;19;20014;-69
2023/01/12 04:32:21;;;;;;;10.57;3.75;;;;;;;-7.96;60.58;100473.97;7349844;19;20007;-69
2023/01/12 04:34:46;;;;;;;7.65;4.00;;;;;;;-8.21;61.17;100487.31;7344626;19;20010;-69
2023/01/12 04:37:10;;;;;;;2.95;1.52;;;;;;;-8.02;60.99;100485.94;7345431;19;20880;-68
2023/01/12 04:39:35;;;;;;;7.93;3.75;;;;;;;-8.19;61.21;100486.53;7345343;19;20018;-69
2023/01/12 04:42:00;;;;;;;9.32;5.10;;;;;;;-8.29;61.56;100476.00;7346028;19;20006;-70
2023/01/12 04:44:24;;;;;;;2.78;1.67;;;;;;;-8.19;61.84;100483.94;7344140;19;20028;-68
2023/01/12 04:46:50;;;;;;;9.35;2.88;;;;;;;-7.73;60.14;100480.38;7349013;19;20029;-69
2023/01/12 04:49:15;;;;;;;4.65;2.45;;;;;;;-7.96;60.13;100473.09;7344938;19;20055;-69
2023/01/12 04:51:39;;;;;;;3.67;2.50;;;;;;;-7.91;60.19;100456.81;7346581;19;20460;-69
2023/01/12 04:54:04;;;;;;;2.65;1.98;;;;;;;-7.91;60.20;100459.41;7348582;19;20461;-68
2023/01/12 04:56:29;;;;;;;6.68;2.95;;;;;;;-7.88;60.11;100463.72;7355581;19;20027;-68
2023/01/12 04:58:59;;;;;;;3.63;2.35;;;;;;;-7.86;60.28;100464.63;7353337;19;20044;-70
2023/01/12 05:01:23;;;;;;;4.60;2.47;;;;;;;-8.01;60.24;100454.06;7349399;19;20328;-68
2023/01/12 05:03:48;;;;;;;7.32;3.95;;;;;;;-8.19;61.26;100457.19;7346493;19;20330;-69
2023/01/12 05:06:13;;;;;;;10.20;4.40;;;;;;;-8.15;61.18;100449.53;7343251;19;20022;-68
2023/01/12 05:11:27;;;;;;;11.15;4.28;;;;;;;-8.36;62.40;100463.84;7343780;19;20078;-68
2023/01/12 05:13:51;;;;;;;5.55;2.78;;;;;;;-8.19;61.85;100452.03;7344947;19;20345;-68
2023/01/12 05:16:17;;;;;;;5.68;3.83;;;;;;;-8.37;62.20;100462.09;7344071;19;20386;-70
2023/01/12 05:18:43;;;;;;;6.82;3.25;;;;;;;-8.23;61.94;100465.72;7343763;19;20033;-68
2023/01/12 05:21:08;;;;;;;2.42;2.00;;;;;;;-8.04;61.69;100462.63;7346682;19;20018;-69
2023/01/12 05:23:33;;;;;;;6.55;3.47;;;;;;;-8.24;62.05;100458.84;7343796;19;20022;-68
2023/01/12 05:25:59;;;;;;;5.30;3.42;;;;;;;-8.29;62.38;100468.22;7345989;19;20010;-68
2023/01/12 05:28:23;;;;;;;7.57;4.07;;;;;;;-8.43;62.50;100463.72;7348049;19;20070;-68
2023/01/12 05:30:48;;;;;;;7.20;3.80;;;;;;;-8.40;62.28;100459.44;7346196;19;20018;-68
2023/01/12 05:33:14;;;;;;;6.97;3.08;;;;;;;-8.36;62.53;100462.13;7346502;19;20540;-67
2023/01/12 05:35:39;;;;;;;5.25;3.35;;;;;;;-8.43;62.62;100468.88;7341308;19;20007;-67
2023/01/12 05:38:03;;;;;;;8.68;4.82;;;;;;;-8.52;62.30;100454.94;7346557;19;20035;-69
2023/01/12 05:40:28;;;;;;;0.93;0.90;;;;;;;-8.27;62.33;100471.72;7341984;19;20010;-68
2023/01/12 05:45:36;;;;;;;5.13;3.40;;;;;;;-8.26;62.07;100469.16;7343175;19;20010;-67
2023/01/12 05:48:01;;;;;;;4.22;2.88;;;;;;;-8.12;61.82;100471.97;7343083;19;20074;-69
2023/01/12 05:50:25;;;;;;;8.80;5.82;;;;;;;-8.66;62.38;100475.34;7346518;19;20014;-70
2023/01/12 05:53:05;;;;;;;7.50;4.50;;;;;;;-8.71;62.89;100473.53;7345934;19;20018;-70
2023/01/12 05:55:30;;;;;;;6.30;3.70;;;;;;;-8.77;63.19;100461.34;7349567;19;20022;-69
2023/01/12 05:57:54;;;;;;;4.45;2.90;;;;;;;-8.71;63.02;100458.91;7345211;19;20451;-71
2023/01/12 06:00:19;;;;;;;3.33;2.00;;;;;;;-8.70;62.98;100473.56;7345702;19;20025;-69
2023/01/12 06:02:44;;;;;;;4.72;2.88;;;;;;;-8.74;63.39;100465.72;7344319;19;20018;-69
2023/01/12 06:05:09;;;;;;;5.47;2.28;;;;;;;-8.55;62.65;100460.91;7346522;19;20006;-69
2023/01/12 06:07:34;;;;;;;3.55;1.98;;;;;;;-8.54;61.97;100456.63;7345273;19;20019;-69
2023/01/12 06:09:59;;;;;;;7.70;5.15;;;;;;;-8.82;62.84;100452.66;7344407;19;20073;-67
2023/01/12 06:15:07;;;;;;;7.28;3.28;;;;;;;-8.81;62.64;100457.00;7346657;19;20010;-69
2023/01/12 06:17:32;;;;;;;8.45;4.00;;;;;;;-8.96;63.11;100430.84;7350897;19;20014;-68
2023/01/12 06:19:57;;;;;;;5.93;3.50;;;;;;;-8.83;62.50;100453.50;7343233;19;20025;-73
2023/01/12 06:22:22;;;;;;;8.68;3.78;;;;;;;-8.84;62.61;100451.75;7344560;19;20014;-71
2023/01/12 06:24:47;;;;;;;8.07;3.90;;;;;;;-8.89;62.44;100449.06;7345033;19;20010;-70
2023/01/12 06:27:12;;;;;;;7.43;4.20;;;;;;;-8.97;62.74;100454.94;7343893;19;20015;-71
2023/01/12 06:29:37;;;;;;;5.35;3.00;;;;;;;-9.02;62.96;100460.00;7347963;19;20017;-70
2023/01/12 06:32:01;;;;;;;5.28;3.28;;;;;;;-8.90;63.01;100467.13;7343356;19;20027;-71
2023/01/12 06:34:26;;;;;;;8.20;4.63;;;;;;;-8.88;62.46;100468.03;7343831;19;20022;-71
2023/01/12 06:36:51;;;;;;;8.55;4.38;;;;;;;-9.00;62.28;100462.63;7345379;19;20020;-71
2023/01/12 06:39:15;;;;;;;6.32;3.30;;;;;;;-9.06;62.87;100471.13;7341327;19;20023;-72
2023/01/12 06:44:23;;;;;;;11.68;5.35;;;;;;;-8.96;61.43;100462.72;7342527;19;20398;-71
2023/01/12 06:46:48;;;;;;;8.60;3.72;;;;;;;-9.04;62.34;100472.03;7343818;19;20071;-72
2023/01/12 06:49:15;;;;;;;5.07;2.67;;;;;;;-9.00;62.48;100473.81;7340212;19;20449;-72
2023/01/12 06:51:39;;;;;;;6.55;3.08;;;;;;;-9.23;63.25;100473.34;7347961;19;20014;-69
2023/01/12 06:54:04;;;;;;;8.65;4.93;;;;;;;-9.37;63.40;100469.63;7347495;19;20014;-69
2023/01/12 06:56:29;;;;;;;8.88;4.43;;;;;;;-9.34;63.61;100467.09;7350956;19;20025;-69
2023/01/12 06:58:54;;;;;;;9.48;5.63;;;;;;;-9.37;63.30;100473.91;7352281;19;20048;-68
2023/01/12 07:01:18;;;;;;;8.32;4.15;;;;;;;-9.26;63.04;100455.25;7350931;19;20010;-68
2023/01/12 07:03:43;;;;;;;8.05;2.85;;;;;;;-9.13;63.06;100463.22;7353672;19;20023;-69
2023/01/12 07:06:08;;;;;;;5.15;3.78;;;;;;;-9.18;62.96;100465.72;7350040;19;20006;-68
2023/01/12 07:08:33;;;;;;;7.13;4.15;;;;;;;-9.10;62.71;100453.81;7351658;19;20019;-68
2023/01/12 07:11:02;;;;;;;5.65;2.92;;;;;;;-8.84;62.99;100456.94;7354936;19;20010;-69
2023/01/12 07:13:28;;;;;;;1.95;1.73;;;;;;;-8.89;62.31;100449.06;7350159;19;20018;-69
2023/01/12 07:15:52;;;;;;;11.50;4.70;;;;;;;-9.27;63.25;100450.91;7354630;19;20453;-70
2023/01/12 07:18:17;;;;;;;3.92;2.10;;;;;;;-8.86;62.56;100450.84;7349962;19;20495;-69
2023/01/12 07:20:44;;;;;;;7.47;4.13;;;;;;;-9.05;62.54;100447.06;7352655;19;20010;-69
2023/01/12 07:23:09;;;;;;;8.02;2.95;;;;;;;-8.86;62.29;100440.53;7354258;19;20484;-69
2023/01/12 07:25:33;;;;;;;7.88;4.00;;;;;;;-8.96;62.48;100441.19;7351901;19;20405;-68
2023/01/12 07:27:58;;;;;;;6.15;2.25;;;;;;;-8.94;62.36;100444.69;7351602;19;20686;-69
2023/01/12 07:30:25;;;;;;;5.22;2.78;;;;;;;-8.84;62.14;100449.19;7352156;19;20517;-67
2023/01/12 07:32:50;;;;;;;8.57;4.57;;;;;;;-8.88;61.94;100444.78;7352978;19;20036;-69
2023/01/12 07:35:16;;;;;;;3.97;2.20;;;;;;;-8.68;61.65;100422.75;7351962;19;20023;-69
2023/01/12 07:37:47;;;;;;;9.45;5.38;;;;;;;-8.88;62.19;100421.53;7350747;19;20010;-68
2023/01/12 07:40:12;;;;;;;8.23;4.78;;;;;;;-8.94;62.45;100442.97;7353613;19;20015;-69
2023/01/12 07:42:37;;;;;;;8.45;4.15;;;;;;;-8.52;61.89;100429.97;7347199;19;20026;-69
2023/01/12 07:45:02;;;;;;;2.55;1.92;;;;;;;-8.85;62.47;100437.09;7348712;19;20010;-69
2023/01/12 07:47:28;;;;;;;10.52;5.70;;;;;;;-9.13;63.47;100446.00;7346277;19;20015;-68
2023/01/12 07:49:53;;;;;;;11.88;5.18;;;;;;;-8.99;63.24;100447.16;7348664;19;20021;-69
2023/01/12 07:52:17;;;;;;;4.57;2.63;;;;;;;-8.47;62.24;100445.56;7347175;19;20465;-72
2023/01/12 07:54:42;;;;;;;11.57;3.47;;;;;;;-8.37;61.86;100444.00;7344992;19;20033;-70
2023/01/12 07:57:10;;;;;;;6.47;2.78;;;;;;;-8.49;62.57;100439.50;7349527;19;20026;-71
2023/01/12 07:59:35;;;;;;;9.23;3.50;;;;;;;-8.29;62.01;100437.19;7353214;19;20028;-72
2023/01/12 08:02:00;;;;;;;11.02;5.40;;;;;;;-8.58;62.26;100429.88;7350272;19;20007;-71
2023/01/12 08:04:24;;;;;;;3.13;2.03;;;;;;;-8.30;62.12;100427.69;7351031;19;20475;-70
2023/01/12 08:06:49;;;;;;;5.28;3.22;;;;;;;-7.91;62.00;100409.34;7350653;19;20867;-70
2023/01/12 08:09:14;;;;;;;9.70;4.68;;;;;;;-7.18;59.96;100421.56;7354042;19;20018;-71
2023/01/12 08:11:38;;;;;;;5.40;2.88;;;;;;;-6.10;59.49;100403.63;7350009;19;20022;-71
2023/01/12 08:14:04;;;;;;;11.60;3.33;;;;;;;-4.60;56.87;100400.81;7351710;19;20015;-69
2023/01/12 08:16:36;;;;;;;6.25;2.30;;;;;;;-3.60;53.12;100392.97;7352415;19;20011;-75
2023/01/12 08:19:11;;;;;;;12.15;5.22;;;;;;;-3.34;48.65;100403.34;7353217;19;20467;-73
2023/01/12 08:21:59;;;;;;;7.43;3.22;;;;;;;-2.69;49.02;100389.97;7350201;19;20060;-72
2023/01/12 08:24:31;;;;;;;5.10;3.30;;;;;;;-2.69;48.30;100397.81;7355958;19;20035;-73
2023/01/12 08:26:58;;;;;;;3.05;2.22;;;;;;;-3.18;48.15;100399.81;7349999;19;20010;-74
2023/01/12 08:29:40;;;;;;;6.85;1.90;;;;;;;-3.24;49.55;100378.09;7349843;19;20021;-73
2023/01/12 08:32:07;;;;;;;10.35;4.15;;;;;;;-2.65;47.90;100388.22;7347808;19;20014;-73
2023/01/12 08:34:34;;;;;;;14.60;6.00;;;;;;;-2.80;46.71;100383.09;7347010;19;20453;-74
2023/01/12 08:37:04;;;;;;;11.73;5.28;;;;;;;-2.91;47.01;100380.53;7347220;19;20013;-73
2023/01/12 08:39:29;;;;;;;8.25;4.68;;;;;;;-2.59;47.06;100389.03;7347503;19;20018;-74
2023/01/12 08:41:54;;;;;;;10.07;4.75;;;;;;;-2.64;46.45;100377.78;7348688;19;20003;-74
2023/01/12 08:44:19;;;;;;;8.25;4.35;;;;;;;-3.11;47.14;100369.34;7347736;19;20457;-73
2023/01/12 08:46:47;;;;;;;7.88;4.43;;;;;;;-2.96;46.88;100383.19;7348000;19;20010;-74
2023/01/12 08:49:12;;;;;;;10.10;5.13;;;;;;;-2.77;47.02;100376.13;7347103;19;20014;-72
2023/01/12 08:51:38;;;;;;;7.22;4.13;;;;;;;-1.73;45.77;100370.94;7347775;19;20017;-73
2023/01/12 08:54:03;;;;;;;8.57;3.70;;;;;;;-1.86;45.22;100358.88;7343177;19;20134;-73
2023/01/12 08:56:27;;;;;;;9.07;4.57;;;;;;;-2.61;46.26;100364.72;7345719;19;20002;-72
2023/01/12 08:58:52;;;;;;;7.40;4.03;;;;;;;-3.30;47.29;100352.94;7346523;19;20020;-73
2023/01/12 09:01:18;;;;;;;12.05;5.63;;;;;;;-4.38;48.74;100355.72;7346417;19;20084;-73
2023/01/12 09:03:43;;;;;;;10.07;5.03;;;;;;;-3.93;47.96;100361.78;7346929;19;20464;-74
2023/01/12 09:06:13;;;;;;;14.15;4.75;;;;;;;-2.94;46.51;100346.66;7350030;19;20474;-74
2023/01/12 09:08:38;;;;;;;13.27;4.95;;;;;;;-3.41;46.96;100349.50;7347116;19;20037;-74
2023/01/12 09:11:04;;;;;;;11.15;3.15;;;;;;;-3.24;47.21;100336.38;7344493;19;20011;-73
2023/01/12 09:13:29;;;;;;;13.07;5.50;;;;;;;-4.71;49.23;100347.91;7343139;19;20018;-72
2023/01/12 09:15:53;;;;;;;6.30;3.72;;;;;;;-4.19;49.90;100336.66;7346456;19;20006;-73
2023/01/12 09:18:18;;;;;;;20.00;6.10;;;;;;;-4.52;49.42;100329.75;7346140;19;20021;-72
2023/01/12 09:20:43;;;;;;;8.18;4.10;;;;;;;-4.06;49.48;100342.69;7349033;19;20002;-74
2023/01/12 09:23:07;;;;;;;7.13;3.90;;;;;;;-3.60;49.34;100333.03;7348708;19;20030;-74
2023/01/12 09:25:33;;;;;;;14.52;5.28;;;;;;;-3.95;48.94;100329.69;7345570;19;20351;-73
2023/01/12 09:27:58;;;;;;;11.45;6.32;;;;;;;-4.49;48.95;100315.84;7344788;19;20469;-73
2023/01/12 09:30:22;;;;;;;20.25;5.95;;;;;;;-4.52;49.90;100319.34;7343791;19;20487;-73
2023/01/12 09:32:47;;;;;;;8.43;5.05;;;;;;;-3.67;48.45;100320.91;7345386;19;20014;-73
2023/01/12 09:35:13;;;;;;;5.60;2.75;;;;;;;-3.35;48.44;100336.44;7346006;19;20018;-73
2023/01/12 09:37:41;;;;;;;6.22;3.30;;;;;;;-3.77;48.05;100324.41;7348313;19;20021;-73
2023/01/12 09:40:09;;;;;;;9.27;4.68;;;;;;;-2.80;47.16;100320.47;7346831;19;20400;-74
2023/01/12 09:48:07;;;;;;;2.03;1.83;;;;;;;-2.38;45.59;100316.69;7346402;19;20076;-74
2023/01/12 09:50:46;;;;;;;11.27;4.85;;;;;;;-3.32;46.48;100311.22;7348930;19;20096;-76
2023/01/12 09:53:18;;;;;;;7.40;4.03;;;;;;;-3.41;48.09;100320.81;7349478;19;20374;-73
2023/01/12 09:55:54;;;;;;;9.75;4.35;;;;;;;-3.85;48.65;100315.78;7348318;19;20040;-74
2023/01/12 09:58:25;;;;;;;16.08;6.10;;;;;;;-4.60;48.91;100320.16;7354892;19;20027;-74
2023/01/12 10:00:55;;;;;;;4.18;3.70;;;;;;;-3.89;49.11;100301.00;7350329;19;20025;-74
2023/01/12 10:03:28;;;;;;;8.55;3.03;;;;;;;-4.17;49.39;100313.19;7350503;19;20015;-75
2023/01/12 10:06:01;;;;;;;12.23;2.92;;;;;;;-3.77;48.59;100304.44;7346876;19;20019;-76
2023/01/12 10:08:35;;;;;;;11.50;4.75;;;;;;;-3.41;47.99;100299.97;7343892;19;20015;-74
2023/01/12 10:11:04;;;;;;;16.23;6.87;;;;;;;-4.06;48.98;100299.28;7344577;19;20020;-74
2023/01/12 10:13:43;;;;;;;14.93;6.28;;;;;;;-3.83;48.81;100280.13;7344211;19;20236;-74
2023/01/12 10:16:17;;;;;;;15.98;6.40;;;;;;;-2.94;47.54;100271.03;7342714;19;20086;-73
2023/01/12 10:18:46;;;;;;;8.55;3.42;;;;;;;-2.43;46.86;100276.69;7345068;19;20007;-74
2023/01/12 10:21:11;;;;;;;10.57;4.70;;;;;;;-2.54;45.47;100273.31;7346674;19;20381;-73
2023/01/12 10:23:36;;;;;;;3.72;2.00;;;;;;;-2.14;45.43;100290.31;7348931;19;20365;-73
2023/01/12 10:26:04;;;;;;;15.30;5.30;;;;;;;-2.63;45.17;100279.47;7347729;19;20018;-73
2023/01/12 10:28:32;;;;;;;13.65;5.10;;;;;;;-3.45;46.70;100286.06;7350127;19;20010;-73
2023/01/12 10:30:57;;;;;;;20.25;7.65;;;;;;;-3.66;47.83;100280.97;7352205;19;20015;-72
2023/01/12 10:33:23;;;;;;;10.63;5.53;;;;;;;-3.51;48.35;100275.69;7354528;19;20013;-73
2023/01/12 10:35:50;;;;;;;12.23;6.20;;;;;;;-2.48;46.75;100261.06;7358572;19;20014;-72
2023/01/12 10:38:20;;;;;;;10.45;3.95;;;;;;;-2.69;46.32;100269.06;7362392;19;20015;-73
2023/01/12 10:41:02;;;;;;;11.68;5.22;;;;;;;-3.50;47.43;100264.38;7351819;19;20014;-73
2023/01/12 10:43:30;;;;;;;18.63;6.88;;;;;;;-4.42;49.34;100260.34;7353850;19;20011;-74
2023/01/12 10:46:04;;;;;;;13.38;4.35;;;;;;;-4.44;49.68;100269.88;7352070;19;20018;-74
2023/01/12 10:48:29;;;;;;;18.85;5.88;;;;;;;-5.07;50.61;100263.78;7354581;19;20035;-73
2023/01/12 10:50:58;;;;;;;11.65;3.80;;;;;;;-5.55;52.38;100275.81;7352353;19;20086;-74
2023/01/12 10:53:39;;;;;;;13.98;5.60;;;;;;;-5.70;52.65;100267.09;7350377;19;20314;-74
2023/01/12 10:56:20;;;;;;;6.65;3.45;;;;;;;-5.85;53.85;100268.75;7352793;19;20052;-74
2023/01/12 10:58:50;;;;;;;15.65;5.85;;;;;;;-6.27;54.10;100253.88;7353732;19;20456;-74
2023/01/12 11:01:15;;;;;;;3.05;2.35;;;;;;;-6.24;54.70;100259.09;7351082;19;20468;-74
2023/01/12 11:03:41;;;;;;;11.50;4.40;;;;;;;-6.19;54.09;100253.03;7352319;19;20346;-74
2023/01/12 11:06:25;;;;;;;8.32;3.25;;;;;;;-6.35;54.67;100252.97;7348606;19;20468;-74
2023/01/12 11:08:50;;;;;;;;;;;;;;;-6.15;53.84;100249.59;7353657;19;20019;-74
2023/01/12 11:11:32;;;;;;;12.25;5.25;;;;;;;-6.38;54.39;100247.75;7357419;19;19925;-72
2023/01/12 11:14:01;;;;;;;4.38;2.58;;;;;;;-6.30;54.50;100250.38;7361150;19;20082;-72
2023/01/12 11:16:46;;;;;;;8.70;4.30;;;;;;;-6.55;55.85;100251.97;7358017;19;20011;-73
2023/01/12 11:19:41;;;;;;;16.65;5.68;;;;;;;-6.44;56.46;100232.16;7355913;19;20345;-73
2023/01/12 11:22:16;;;;;;;12.73;3.93;;;;;;;-6.20;55.57;100246.09;7355107;19;20564;-72
2023/01/12 11:24:48;;;;;;;9.43;3.72;;;;;;;-6.44;55.87;100232.16;7356221;19;20361;-73
2023/01/12 11:27:20;;;;;;;3.90;1.55;;;;;;;-6.22;55.61;100242.66;7357607;19;20009;-72
2023/01/12 11:30:03;;;;;;;10.75;3.67;;;;;;;-6.49;55.87;100238.16;7356729;19;20017;-73
2023/01/12 11:32:47;;;;;;;9.63;4.88;;;;;;;-6.65;56.45;100240.66;7356638;19;20014;-72
2023/01/12 11:35:33;;;;;;;17.75;5.45;;;;;;;-6.93;57.57;100230.06;7353173;19;20449;-73
2023/01/12 11:38:04;;;;;;;16.52;7.72;;;;;;;-7.37;59.22;100222.78;7350557;19;20010;-70
2023/01/12 11:40:34;;;;;;;13.80;5.20;;;;;;;-7.26;59.35;100225.47;7349575;19;20018;-72
2023/01/12 11:43:49;;;;;;;9.48;3.33;;;;;;;-6.87;58.60;100230.09;7351314;19;20018;-72
2023/01/12 11:46:25;;;;;;;7.90;3.40;;;;;;;-6.80;57.90;100219.81;7347127;19;20010;-72
2023/01/12 11:49:00;;;;;;;19.85;7.38;;;;;;;-6.89;58.31;100216.28;7351283;19;20002;-73
2023/01/12 11:51:26;;;;;;;10.25;4.82;;;;;;;-6.90;58.27;100227.50;7348420;19;20018;-73
2023/01/12 11:53:51;;;;;;;12.18;5.88;;;;;;;-7.07;58.98;100220.44;7346534;19;20007;-74
2023/01/12 11:56:45;;;;;;;16.27;6.25;;;;;;;-7.00;59.23;100224.81;7344962;19;20057;-73
2023/01/12 11:59:15;;;;;;;12.73;4.47;;;;;;;-7.04;59.14;100219.63;7343956;19;20014;-74